sensor_id;sensor_type;location;lat;lon;timestamp;pressure;altitude;pressure_sealevel;temperature;humidity
78483;BME280;67772;50.158;8.658;2023-03-23T00:01:18;99574.59;;;15.47;43.31
78483;BME280;67772;50.158;8.658;2023-03-23T00:03:49;99572.72;;;15.29;43.22
78483;BME280;67772;50.158;8.658;2023-03-23T00:06:16;99571.84;;;15.34;43.26
78483;BME280;67772;50.158;8.658;2023-03-23T00:08:46;99576.66;;;15.18;44.02
78483;BME280;67772;50.158;8.658;2023-03-23T00:11:13;99574.75;;;15.37;43.41
78483;BME280;67772;50.158;8.658;2023-03-23T00:13:43;99569.84;;;15.44;43.92
78483;BME280;67772;50.158;8.658;2023-03-23T00:16:11;99572.72;;;15.29;43.87
78483;BME280;67772;50.158;8.658;2023-03-23T00:18:51;99575.66;;;15.14;44.70
78483;BME280;67772;50.158;8.658;2023-03-23T00:21:18;99586.97;;;15.30;44.28
78483;BME280;67772;50.158;8.658;2023-03-23T00:23:44;99572.72;;;15.29;44.20
78483;BME280;67772;50.158;8.658;2023-03-23T00:26:10;99577.09;;;15.25;44.74
78483;BME280;67772;50.158;8.658;2023-03-23T00:28:36;99578.03;;;15.16;44.72
78483;BME280;67772;50.158;8.658;2023-03-23T00:31:06;99569.47;;;15.32;44.44
78483;BME280;67772;50.158;8.658;2023-03-23T00:33:34;99582.69;;;15.29;44.67
78483;BME280;67772;50.158;8.658;2023-03-23T00:36:04;99567.84;;;15.31;45.13
78483;BME280;67772;50.158;8.658;2023-03-23T00:38:29;99577.53;;;15.32;44.75
78483;BME280;67772;50.158;8.658;2023-03-23T00:40:54;99560.38;;;15.28;44.62
78483;BME280;67772;50.158;8.658;2023-03-23T00:43:23;99563.56;;;15.30;44.97
78483;BME280;67772;50.158;8.658;2023-03-23T00:45:50;99565.25;;;15.26;44.85
78483;BME280;67772;50.158;8.658;2023-03-23T00:48:18;99555.94;;;15.37;44.87
78483;BME280;67772;50.158;8.658;2023-03-23T00:50:43;99558.78;;;15.27;44.80
78483;BME280;67772;50.158;8.658;2023-03-23T00:53:09;99543.16;;;15.29;44.85
78483;BME280;67772;50.158;8.658;2023-03-23T00:55:34;99544.44;;;15.18;45.33
78483;BME280;67772;50.158;8.658;2023-03-23T00:57:59;99547.81;;;15.24;44.76
78483;BME280;67772;50.158;8.658;2023-03-23T01:00:25;99538.91;;;15.28;44.98
78483;BME280;67772;50.158;8.658;2023-03-23T01:02:52;99546.66;;;15.30;44.69
78483;BME280;67772;50.158;8.658;2023-03-23T01:05:18;99542.66;;;15.27;45.12
78483;BME280;67772;50.158;8.658;2023-03-23T01:07:44;99546.44;;;15.26;44.94
78483;BME280;67772;50.158;8.658;2023-03-23T01:10:11;99543.59;;;15.36;44.77
78483;BME280;67772;50.158;8.658;2023-03-23T01:12:44;99551.47;;;15.33;44.79
78483;BME280;67772;50.158;8.658;2023-03-23T01:15:15;99544.88;;;15.25;44.86
78483;BME280;67772;50.158;8.658;2023-03-23T01:17:43;99532.38;;;15.16;45.51
78483;BME280;67772;50.158;8.658;2023-03-23T01:20:08;99525.97;;;15.30;45.07
78483;BME280;67772;50.158;8.658;2023-03-23T01:22:34;99529.31;;;15.22;45.34
78483;BME280;67772;50.158;8.658;2023-03-23T01:25:00;99537.88;;;15.24;45.22
78483;BME280;67772;50.158;8.658;2023-03-23T01:27:25;99537.47;;;15.17;45.29
78483;BME280;67772;50.158;8.658;2023-03-23T01:29:50;99534.59;;;14.95;45.83
78483;BME280;67772;50.158;8.658;2023-03-23T01:32:16;99535.78;;;15.21;45.72
78483;BME280;67772;50.158;8.658;2023-03-23T01:34:42;99529.31;;;15.22;45.35
78483;BME280;67772;50.158;8.658;2023-03-23T01:37:07;99536.31;;;15.23;45.50
78483;BME280;67772;50.158;8.658;2023-03-23T01:39:32;99547.56;;;15.06;45.98
78483;BME280;67772;50.158;8.658;2023-03-23T01:41:58;99533.94;;;15.03;46.21
78483;BME280;67772;50.158;8.658;2023-03-23T01:46:48;99518.13;;;15.01;45.74
78483;BME280;67772;50.158;8.658;2023-03-23T01:49:20;99516.09;;;14.93;46.15
78483;BME280;67772;50.158;8.658;2023-03-23T01:51:51;99516.16;;;15.07;45.88
78483;BME280;67772;50.158;8.658;2023-03-23T01:54:19;99528.47;;;15.08;45.77
78483;BME280;67772;50.158;8.658;2023-03-23T01:56:59;99519.44;;;15.18;45.21
78483;BME280;67772;50.158;8.658;2023-03-23T01:59:26;99518.72;;;15.12;45.40
78483;BME280;67772;50.158;8.658;2023-03-23T02:01:54;99520.91;;;15.10;45.48
78483;BME280;67772;50.158;8.658;2023-03-23T02:04:21;99521.13;;;15.14;45.66
78483;BME280;67772;50.158;8.658;2023-03-23T02:06:48;99516.22;;;15.02;46.22
78483;BME280;67772;50.158;8.658;2023-03-23T02:09:14;99522.09;;;15.04;46.02
78483;BME280;67772;50.158;8.658;2023-03-23T02:11:42;99534.00;;;14.98;45.92
78483;BME280;67772;50.158;8.658;2023-03-23T02:14:07;99540.19;;;14.98;45.94
78483;BME280;67772;50.158;8.658;2023-03-23T02:16:40;99531.31;;;14.98;46.13
78483;BME280;67772;50.158;8.658;2023-03-23T02:22:17;99518.03;;;15.06;45.65
78483;BME280;67772;50.158;8.658;2023-03-23T02:28:19;99514.78;;;14.91;46.58
78483;BME280;67772;50.158;8.658;2023-03-23T02:34:08;99499.88;;;14.98;46.57
78483;BME280;67772;50.158;8.658;2023-03-23T02:36:46;99498.59;;;14.96;46.10
78483;BME280;67772;50.158;8.658;2023-03-23T02:41:50;99509.97;;;15.06;46.07
78483;BME280;67772;50.158;8.658;2023-03-23T02:44:17;99511.19;;;15.14;46.17
78483;BME280;67772;50.158;8.658;2023-03-23T02:46:43;99506.81;;;15.18;46.07
78483;BME280;67772;50.158;8.658;2023-03-23T02:49:11;99519.34;;;15.09;46.26
78483;BME280;67772;50.158;8.658;2023-03-23T02:51:39;99514.53;;;15.06;47.33
78483;BME280;67772;50.158;8.658;2023-03-23T02:54:06;99517.53;;;15.04;48.52
78483;BME280;67772;50.158;8.658;2023-03-23T02:56:32;99503.63;;;14.84;50.33
78483;BME280;67772;50.158;8.658;2023-03-23T02:58:59;99499.69;;;14.95;50.63
78483;BME280;67772;50.158;8.658;2023-03-23T03:04:01;99496.81;;;14.73;52.39
78483;BME280;67772;50.158;8.658;2023-03-23T03:06:41;99496.94;;;14.63;52.84
78483;BME280;67772;50.158;8.658;2023-03-23T03:11:50;99493.78;;;14.18;54.69
78483;BME280;67772;50.158;8.658;2023-03-23T03:14:22;99492.59;;;14.30;54.08
78483;BME280;67772;50.158;8.658;2023-03-23T03:19:34;99488.50;;;14.13;55.28
78483;BME280;67772;50.158;8.658;2023-03-23T03:22:01;99490.34;;;13.94;55.89
78483;BME280;67772;50.158;8.658;2023-03-23T03:24:28;99483.31;;;13.98;58.15
78483;BME280;67772;50.158;8.658;2023-03-23T03:26:57;99477.16;;;13.98;57.31
78483;BME280;67772;50.158;8.658;2023-03-23T03:29:28;99484.03;;;13.85;57.63
78483;BME280;67772;50.158;8.658;2023-03-23T03:31:56;99488.78;;;13.88;57.79
78483;BME280;67772;50.158;8.658;2023-03-23T03:34:23;99483.22;;;13.85;57.71
78483;BME280;67772;50.158;8.658;2023-03-23T03:36:51;99493.00;;;13.94;57.88
78483;BME280;67772;50.158;8.658;2023-03-23T03:39:17;99491.47;;;13.88;57.63
78483;BME280;67772;50.158;8.658;2023-03-23T03:41:44;99487.94;;;13.69;59.19
78483;BME280;67772;50.158;8.658;2023-03-23T03:44:10;99487.78;;;13.84;58.52
78483;BME280;67772;50.158;8.658;2023-03-23T03:46:36;99498.06;;;13.77;58.73
78483;BME280;67772;50.158;8.658;2023-03-23T03:49:04;99494.66;;;13.90;57.47
78483;BME280;67772;50.158;8.658;2023-03-23T03:51:31;99499.19;;;13.95;58.36
78483;BME280;67772;50.158;8.658;2023-03-23T03:53:57;99492.06;;;13.85;58.20
78483;BME280;67772;50.158;8.658;2023-03-23T03:56:23;99501.94;;;13.90;57.65
78483;BME280;67772;50.158;8.658;2023-03-23T03:58:49;99512.88;;;13.93;57.50
78483;BME280;67772;50.158;8.658;2023-03-23T04:01:16;99502.72;;;13.90;57.18
78483;BME280;67772;50.158;8.658;2023-03-23T04:03:43;99495.19;;;13.92;56.74
78483;BME280;67772;50.158;8.658;2023-03-23T04:06:09;99488.94;;;13.78;57.16
78483;BME280;67772;50.158;8.658;2023-03-23T04:08:36;99488.25;;;13.91;56.87
78483;BME280;67772;50.158;8.658;2023-03-23T04:11:06;99497.09;;;13.92;57.22
78483;BME280;67772;50.158;8.658;2023-03-23T04:13:32;99497.75;;;14.02;57.01
78483;BME280;67772;50.158;8.658;2023-03-23T04:15:57;99487.66;;;13.94;56.62
78483;BME280;67772;50.158;8.658;2023-03-23T04:18:22;99500.00;;;13.95;57.38
78483;BME280;67772;50.158;8.658;2023-03-23T04:20:50;99495.66;;;13.99;56.48
78483;BME280;67772;50.158;8.658;2023-03-23T04:23:17;99495.78;;;13.89;56.98
78483;BME280;67772;50.158;8.658;2023-03-23T04:25:47;99503.97;;;13.98;56.85
78483;BME280;67772;50.158;8.658;2023-03-23T04:28:14;99508.19;;;14.04;56.92
78483;BME280;67772;50.158;8.658;2023-03-23T04:30:42;99502.78;;;14.09;57.00
78483;BME280;67772;50.158;8.658;2023-03-23T04:33:08;99507.66;;;14.02;57.15
78483;BME280;67772;50.158;8.658;2023-03-23T04:35:34;99508.47;;;14.02;57.01
78483;BME280;67772;50.158;8.658;2023-03-23T04:37:59;99504.75;;;13.98;57.42
78483;BME280;67772;50.158;8.658;2023-03-23T04:40:24;99512.94;;;13.88;57.70
78483;BME280;67772;50.158;8.658;2023-03-23T04:42:50;99512.78;;;13.80;57.38
78483;BME280;67772;50.158;8.658;2023-03-23T04:45:19;99517.09;;;13.76;58.12
78483;BME280;67772;50.158;8.658;2023-03-23T04:47:48;99514.34;;;13.81;57.64
78483;BME280;67772;50.158;8.658;2023-03-23T04:50:20;99520.19;;;13.88;57.28
78483;BME280;67772;50.158;8.658;2023-03-23T04:52:46;99522.69;;;13.79;58.05
78483;BME280;67772;50.158;8.658;2023-03-23T04:55:12;99523.53;;;13.75;57.90
78483;BME280;67772;50.158;8.658;2023-03-23T04:57:38;99522.81;;;13.93;57.75
78483;BME280;67772;50.158;8.658;2023-03-23T05:00:06;99510.25;;;13.88;57.95
78483;BME280;67772;50.158;8.658;2023-03-23T05:02:36;99507.03;;;13.86;57.87
78483;BME280;67772;50.158;8.658;2023-03-23T05:05:02;99512.19;;;13.83;57.53
78483;BME280;67772;50.158;8.658;2023-03-23T05:07:27;99517.25;;;13.84;58.35
78483;BME280;67772;50.158;8.658;2023-03-23T05:09:52;99513.28;;;13.82;58.21
78483;BME280;67772;50.158;8.658;2023-03-23T05:12:18;99514.72;;;13.74;58.97
78483;BME280;67772;50.158;8.658;2023-03-23T05:14:43;99520.63;;;13.71;58.72
78483;BME280;67772;50.158;8.658;2023-03-23T05:17:09;99516.88;;;13.72;59.12
78483;BME280;67772;50.158;8.658;2023-03-23T05:19:35;99520.84;;;13.75;58.87
78483;BME280;67772;50.158;8.658;2023-03-23T05:22:02;99528.03;;;13.56;59.67
78483;BME280;67772;50.158;8.658;2023-03-23T05:24:31;99527.94;;;13.66;59.31
78483;BME280;67772;50.158;8.658;2023-03-23T05:26:58;99522.28;;;13.67;59.45
78483;BME280;67772;50.158;8.658;2023-03-23T05:29:23;99523.31;;;13.71;59.46
78483;BME280;67772;50.158;8.658;2023-03-23T05:31:49;99522.38;;;13.57;60.00
78483;BME280;67772;50.158;8.658;2023-03-23T05:34:14;99519.09;;;13.65;59.82
78483;BME280;67772;50.158;8.658;2023-03-23T05:36:41;99517.28;;;13.61;60.61
78483;BME280;67772;50.158;8.658;2023-03-23T05:39:09;99528.16;;;13.69;60.06
78483;BME280;67772;50.158;8.658;2023-03-23T05:41:35;99523.13;;;13.63;60.24
78483;BME280;67772;50.158;8.658;2023-03-23T05:44:00;99516.38;;;13.70;59.97
78483;BME280;67772;50.158;8.658;2023-03-23T05:46:26;99526.09;;;13.61;60.48
78483;BME280;67772;50.158;8.658;2023-03-23T05:48:51;99539.69;;;13.70;60.34
78483;BME280;67772;50.158;8.658;2023-03-23T05:51:17;99529.69;;;13.75;60.62
78483;BME280;67772;50.158;8.658;2023-03-23T05:53:43;99524.97;;;13.67;60.78
78483;BME280;67772;50.158;8.658;2023-03-23T05:56:09;99545.94;;;13.60;61.49
78483;BME280;67772;50.158;8.658;2023-03-23T05:58:34;99540.50;;;13.70;60.96
78483;BME280;67772;50.158;8.658;2023-03-23T06:00:59;99542.88;;;13.72;61.14
78483;BME280;67772;50.158;8.658;2023-03-23T06:03:25;99553.25;;;13.55;61.87
78483;BME280;67772;50.158;8.658;2023-03-23T06:05:50;99556.66;;;13.60;61.72
78483;BME280;67772;50.158;8.658;2023-03-23T06:08:15;99551.22;;;13.70;61.39
78483;BME280;67772;50.158;8.658;2023-03-23T06:10:41;99540.88;;;13.82;60.87
78483;BME280;67772;50.158;8.658;2023-03-23T06:13:06;99548.00;;;13.68;61.48
78483;BME280;67772;50.158;8.658;2023-03-23T06:15:31;99544.84;;;13.61;61.92
78483;BME280;67772;50.158;8.658;2023-03-23T06:17:59;99554.16;;;13.69;61.96
78483;BME280;67772;50.158;8.658;2023-03-23T06:20:24;99558.59;;;13.55;62.29
78483;BME280;67772;50.158;8.658;2023-03-23T06:22:50;99571.63;;;13.66;62.23
78483;BME280;67772;50.158;8.658;2023-03-23T06:25:17;99567.44;;;13.79;62.25
78483;BME280;67772;50.158;8.658;2023-03-23T06:27:42;99573.09;;;13.77;62.29
78483;BME280;67772;50.158;8.658;2023-03-23T06:30:09;99557.59;;;13.74;62.33
78483;BME280;67772;50.158;8.658;2023-03-23T06:32:35;99575.56;;;13.74;62.93
78483;BME280;67772;50.158;8.658;2023-03-23T06:35:01;99565.22;;;13.62;64.18
78483;BME280;67772;50.158;8.658;2023-03-23T06:37:28;99559.28;;;13.94;63.95
78483;BME280;67772;50.158;8.658;2023-03-23T06:39:54;99564.78;;;14.02;62.84
78483;BME280;67772;50.158;8.658;2023-03-23T06:42:19;99572.31;;;14.00;62.41
78483;BME280;67772;50.158;8.658;2023-03-23T06:44:46;99550.31;;;14.03;61.82
78483;BME280;67772;50.158;8.658;2023-03-23T06:47:12;99562.06;;;14.07;62.62
78483;BME280;67772;50.158;8.658;2023-03-23T06:49:37;99564.75;;;14.07;62.27
78483;BME280;67772;50.158;8.658;2023-03-23T06:52:02;99580.75;;;14.12;61.91
78483;BME280;67772;50.158;8.658;2023-03-23T06:54:28;99585.78;;;13.95;62.41
78483;BME280;67772;50.158;8.658;2023-03-23T06:56:54;99582.69;;;13.83;63.25
78483;BME280;67772;50.158;8.658;2023-03-23T06:59:19;99577.34;;;13.83;63.01
78483;BME280;67772;50.158;8.658;2023-03-23T07:01:45;99573.09;;;13.77;62.51
78483;BME280;67772;50.158;8.658;2023-03-23T07:04:11;99575.03;;;13.72;63.30
78483;BME280;67772;50.158;8.658;2023-03-23T07:06:37;99573.69;;;13.74;63.08
78483;BME280;67772;50.158;8.658;2023-03-23T07:09:03;99580.22;;;13.63;63.79
78483;BME280;67772;50.158;8.658;2023-03-23T07:11:29;99580.16;;;13.68;63.72
78483;BME280;67772;50.158;8.658;2023-03-23T07:13:55;99575.84;;;13.72;64.20
78483;BME280;67772;50.158;8.658;2023-03-23T07:16:20;99574.75;;;13.73;64.21
78483;BME280;67772;50.158;8.658;2023-03-23T07:18:46;99587.09;;;13.74;63.61
78483;BME280;67772;50.158;8.658;2023-03-23T07:21:11;99596.25;;;13.68;65.07
78483;BME280;67772;50.158;8.658;2023-03-23T07:23:37;99598.97;;;13.63;64.75
78483;BME280;67772;50.158;8.658;2023-03-23T07:26:03;99590.38;;;13.66;65.34
78483;BME280;67772;50.158;8.658;2023-03-23T07:28:29;99599.53;;;13.60;65.75
78483;BME280;67772;50.158;8.658;2023-03-23T07:30:54;99589.00;;;13.40;66.34
78483;BME280;67772;50.158;8.658;2023-03-23T07:33:20;99586.16;;;13.60;65.53
78483;BME280;67772;50.158;8.658;2023-03-23T07:35:45;99603.81;;;13.61;66.05
78483;BME280;67772;50.158;8.658;2023-03-23T07:38:12;99599.84;;;13.54;66.40
78483;BME280;67772;50.158;8.658;2023-03-23T07:40:38;99592.91;;;13.53;65.87
78483;BME280;67772;50.158;8.658;2023-03-23T07:43:04;99599.03;;;13.53;66.53
78483;BME280;67772;50.158;8.658;2023-03-23T07:45:31;99595.00;;;13.61;66.40
78483;BME280;67772;50.158;8.658;2023-03-23T07:47:57;99599.44;;;13.70;65.86
78483;BME280;67772;50.158;8.658;2023-03-23T07:50:23;99602.69;;;13.67;65.88
78483;BME280;67772;50.158;8.658;2023-03-23T07:52:58;99608.56;;;13.69;66.29
78483;BME280;67772;50.158;8.658;2023-03-23T07:55:24;99614.53;;;13.61;66.34
78483;BME280;67772;50.158;8.658;2023-03-23T07:57:51;99611.28;;;13.64;66.33
78483;BME280;67772;50.158;8.658;2023-03-23T08:00:17;99613.78;;;13.56;67.01
78483;BME280;67772;50.158;8.658;2023-03-23T08:02:55;99611.38;;;13.54;66.90
78483;BME280;67772;50.158;8.658;2023-03-23T08:05:22;99625.28;;;13.56;67.47
78483;BME280;67772;50.158;8.658;2023-03-23T08:07:48;99624.56;;;13.46;67.24
78483;BME280;67772;50.158;8.658;2023-03-23T08:10:15;99621.59;;;13.52;67.29
78483;BME280;67772;50.158;8.658;2023-03-23T08:12:42;99620.75;;;13.57;66.86
78483;BME280;67772;50.158;8.658;2023-03-23T08:15:10;99619.84;;;13.66;66.27
78483;BME280;67772;50.158;8.658;2023-03-23T08:17:37;99624.72;;;13.59;66.88
78483;BME280;67772;50.158;8.658;2023-03-23T08:20:04;99626.00;;;13.67;66.28
78483;BME280;67772;50.158;8.658;2023-03-23T08:22:36;99633.19;;;13.71;65.87
78483;BME280;67772;50.158;8.658;2023-03-23T08:25:04;99635.44;;;13.59;66.54
78483;BME280;67772;50.158;8.658;2023-03-23T08:27:31;99630.00;;;13.69;65.88
78483;BME280;67772;50.158;8.658;2023-03-23T08:29:56;99632.91;;;13.73;65.79
78483;BME280;67772;50.158;8.658;2023-03-23T08:32:22;99648.47;;;13.71;65.46
78483;BME280;67772;50.158;8.658;2023-03-23T08:34:48;99645.84;;;13.66;65.67
78483;BME280;67772;50.158;8.658;2023-03-23T08:37:14;99647.13;;;13.73;65.01
78483;BME280;67772;50.158;8.658;2023-03-23T08:39:39;99653.84;;;13.71;65.43
78483;BME280;67772;50.158;8.658;2023-03-23T08:42:04;99650.31;;;13.75;65.25
78483;BME280;67772;50.158;8.658;2023-03-23T08:44:30;99656.81;;;13.69;64.85
78483;BME280;67772;50.158;8.658;2023-03-23T08:46:55;99668.00;;;13.76;65.19
78483;BME280;67772;50.158;8.658;2023-03-23T08:49:22;99673.59;;;13.80;65.08
78483;BME280;67772;50.158;8.658;2023-03-23T08:51:48;99664.16;;;13.87;64.50
78483;BME280;67772;50.158;8.658;2023-03-23T08:54:14;99656.13;;;13.82;64.75
78483;BME280;67772;50.158;8.658;2023-03-23T08:56:39;99657.19;;;13.86;64.47
78483;BME280;67772;50.158;8.658;2023-03-23T08:59:04;99662.22;;;13.93;64.51
78483;BME280;67772;50.158;8.658;2023-03-23T09:01:30;99665.00;;;14.11;63.54
78483;BME280;67772;50.158;8.658;2023-03-23T09:03:55;99649.47;;;14.08;63.71
78483;BME280;67772;50.158;8.658;2023-03-23T09:06:21;99651.19;;;14.23;63.44
78483;BME280;67772;50.158;8.658;2023-03-23T09:08:47;99656.31;;;14.19;63.14
78483;BME280;67772;50.158;8.658;2023-03-23T09:11:13;99656.97;;;14.35;62.63
78483;BME280;67772;50.158;8.658;2023-03-23T09:13:39;99646.75;;;14.37;62.63
78483;BME280;67772;50.158;8.658;2023-03-23T09:16:06;99646.53;;;14.34;62.86
78483;BME280;67772;50.158;8.658;2023-03-23T09:18:32;99634.31;;;14.46;62.17
78483;BME280;67772;50.158;8.658;2023-03-23T09:20:59;99641.97;;;14.58;61.73
78483;BME280;67772;50.158;8.658;2023-03-23T09:23:25;99640.94;;;14.54;61.84
78483;BME280;67772;50.158;8.658;2023-03-23T09:25:50;99646.19;;;14.64;62.17
78483;BME280;67772;50.158;8.658;2023-03-23T09:28:17;99645.03;;;14.70;61.40
78483;BME280;67772;50.158;8.658;2023-03-23T09:30:42;99644.03;;;14.84;60.53
78483;BME280;67772;50.158;8.658;2023-03-23T09:33:09;99647.56;;;15.03;60.03
78483;BME280;67772;50.158;8.658;2023-03-23T09:35:35;99651.09;;;15.18;60.16
78483;BME280;67772;50.158;8.658;2023-03-23T09:38:04;99664.59;;;15.31;59.12
78483;BME280;67772;50.158;8.658;2023-03-23T09:40:46;99646.00;;;15.35;58.81
78483;BME280;67772;50.158;8.658;2023-03-23T09:46:04;99653.81;;;16.01;56.57
78483;BME280;67772;50.158;8.658;2023-03-23T09:51:31;99670.28;;;16.94;53.83
78483;BME280;67772;50.158;8.658;2023-03-23T09:54:03;99666.88;;;17.38;51.48
78483;BME280;67772;50.158;8.658;2023-03-23T09:56:31;99658.88;;;17.46;51.76
78483;BME280;67772;50.158;8.658;2023-03-23T10:01:47;99658.53;;;17.26;52.83
78483;BME280;67772;50.158;8.658;2023-03-23T10:04:26;99651.03;;;17.58;52.08
78483;BME280;67772;50.158;8.658;2023-03-23T10:06:57;99662.53;;;17.28;52.07
78483;BME280;67772;50.158;8.658;2023-03-23T10:09:23;99656.81;;;16.94;53.40
78483;BME280;67772;50.158;8.658;2023-03-23T10:15:14;99673.00;;;16.40;55.04
78483;BME280;67772;50.158;8.658;2023-03-23T10:17:59;99667.59;;;16.40;55.93
78483;BME280;67772;50.158;8.658;2023-03-23T10:20:54;99689.09;;;16.13;56.86
78483;BME280;67772;50.158;8.658;2023-03-23T10:28:52;99695.84;;;15.97;57.89
78483;BME280;67772;50.158;8.658;2023-03-23T10:31:23;99703.31;;;15.67;57.00
78483;BME280;67772;50.158;8.658;2023-03-23T10:33:56;99701.53;;;15.44;56.83
78483;BME280;67772;50.158;8.658;2023-03-23T10:36:30;99710.44;;;15.40;56.45
78483;BME280;67772;50.158;8.658;2023-03-23T10:39:02;99707.97;;;15.25;57.09
78483;BME280;67772;50.158;8.658;2023-03-23T10:41:30;99706.94;;;15.39;56.79
78483;BME280;67772;50.158;8.658;2023-03-23T10:43:56;99705.91;;;15.72;55.74
78483;BME280;67772;50.158;8.658;2023-03-23T10:46:43;99692.13;;;15.92;53.82
78483;BME280;67772;50.158;8.658;2023-03-23T10:49:17;99686.13;;;16.28;52.73
78483;BME280;67772;50.158;8.658;2023-03-23T10:51:45;99686.34;;;16.31;52.98
78483;BME280;67772;50.158;8.658;2023-03-23T10:54:11;99684.34;;;16.37;52.98
78483;BME280;67772;50.158;8.658;2023-03-23T10:56:42;99691.63;;;15.90;53.64
78483;BME280;67772;50.158;8.658;2023-03-23T10:59:20;99693.06;;;15.69;53.57
78483;BME280;67772;50.158;8.658;2023-03-23T11:01:53;99697.63;;;15.87;53.67
78483;BME280;67772;50.158;8.658;2023-03-23T11:04:20;99696.78;;;15.55;54.75
78483;BME280;67772;50.158;8.658;2023-03-23T11:06:49;99689.81;;;15.54;54.86
78483;BME280;67772;50.158;8.658;2023-03-23T11:09:17;99697.72;;;15.64;54.85
78483;BME280;67772;50.158;8.658;2023-03-23T11:11:51;99684.19;;;15.69;54.70
78483;BME280;67772;50.158;8.658;2023-03-23T11:14:27;99704.91;;;15.31;55.89
78483;BME280;67772;50.158;8.658;2023-03-23T11:16:58;99701.44;;;15.49;56.37
78483;BME280;67772;50.158;8.658;2023-03-23T11:19:35;99700.31;;;15.32;57.64
78483;BME280;67772;50.158;8.658;2023-03-23T11:24:41;99711.38;;;15.30;58.04
78483;BME280;67772;50.158;8.658;2023-03-23T11:27:09;99719.97;;;15.51;57.59
78483;BME280;67772;50.158;8.658;2023-03-23T11:29:47;99699.25;;;16.16;56.13
78483;BME280;67772;50.158;8.658;2023-03-23T11:32:15;99685.25;;;17.00;53.25
78483;BME280;67772;50.158;8.658;2023-03-23T11:34:52;99686.91;;;17.81;51.22
78483;BME280;67772;50.158;8.658;2023-03-23T11:39:57;99677.97;;;18.64;48.59
78483;BME280;67772;50.158;8.658;2023-03-23T11:45:20;99694.91;;;18.87;48.05
78483;BME280;67772;50.158;8.658;2023-03-23T11:50:24;99687.38;;;18.05;50.16
78483;BME280;67772;50.158;8.658;2023-03-23T11:53:00;99689.88;;;18.24;49.33
78483;BME280;67772;50.158;8.658;2023-03-23T11:55:35;99693.66;;;17.92;48.00
78483;BME280;67772;50.158;8.658;2023-03-23T11:58:10;99706.59;;;17.59;49.26
78483;BME280;67772;50.158;8.658;2023-03-23T12:00:44;99692.13;;;17.78;49.46
78483;BME280;67772;50.158;8.658;2023-03-23T12:03:13;99672.44;;;18.69;46.45
78483;BME280;67772;50.158;8.658;2023-03-23T12:17:20;99661.25;;;19.70;44.41
78483;BME280;67772;50.158;8.658;2023-03-23T12:20:05;99674.88;;;18.96;45.54
78483;BME280;67772;50.158;8.658;2023-03-23T12:22:48;99685.69;;;17.87;47.98
78483;BME280;67772;50.158;8.658;2023-03-23T12:31:02;99656.69;;;17.48;50.22
78483;BME280;67772;50.158;8.658;2023-03-23T12:44:07;99635.66;;;17.01;50.47
78483;BME280;67772;50.158;8.658;2023-03-23T12:46:58;99645.63;;;17.36;50.83
78483;BME280;67772;50.158;8.658;2023-03-23T12:49:47;99636.91;;;17.39;50.57
78483;BME280;67772;50.158;8.658;2023-03-23T12:52:28;99639.59;;;17.53;50.00
78483;BME280;67772;50.158;8.658;2023-03-23T12:55:07;99640.25;;;17.58;50.18
78483;BME280;67772;50.158;8.658;2023-03-23T12:57:51;99630.19;;;17.50;50.20
78483;BME280;67772;50.158;8.658;2023-03-23T13:00:28;99626.34;;;17.65;49.69
78483;BME280;67772;50.158;8.658;2023-03-23T13:03:38;99634.94;;;17.67;50.01
78483;BME280;67772;50.158;8.658;2023-03-23T13:06:00;99640.47;;;17.26;51.46
78483;BME280;67772;50.158;8.658;2023-03-23T13:08:43;99651.44;;;17.30;52.02
78483;BME280;67772;50.158;8.658;2023-03-23T13:11:29;99675.81;;;17.25;52.02
78483;BME280;67772;50.158;8.658;2023-03-23T13:14:29;99646.16;;;16.89;52.33
78483;BME280;67772;50.158;8.658;2023-03-23T13:22:37;99624.56;;;17.03;51.76
78483;BME280;67772;50.158;8.658;2023-03-23T13:25:13;99633.25;;;17.35;50.03
78483;BME280;67772;50.158;8.658;2023-03-23T13:27:39;99624.75;;;17.42;50.41
78483;BME280;67772;50.158;8.658;2023-03-23T13:30:05;99612.44;;;17.72;49.59
78483;BME280;67772;50.158;8.658;2023-03-23T13:32:42;99625.13;;;18.02;49.07
78483;BME280;67772;50.158;8.658;2023-03-23T13:35:16;99638.38;;;17.59;49.56
78483;BME280;67772;50.158;8.658;2023-03-23T13:37:45;99612.06;;;17.64;49.39
78483;BME280;67772;50.158;8.658;2023-03-23T13:40:25;99625.97;;;18.11;48.65
78483;BME280;67772;50.158;8.658;2023-03-23T13:42:57;99646.94;;;18.14;48.25
78483;BME280;67772;50.158;8.658;2023-03-23T13:45:44;99628.22;;;17.87;48.72
78483;BME280;67772;50.158;8.658;2023-03-23T13:53:15;99628.06;;;17.61;49.61
78483;BME280;67772;50.158;8.658;2023-03-23T13:56:06;99616.47;;;17.38;50.84
78483;BME280;67772;50.158;8.658;2023-03-23T13:58:31;99615.81;;;17.19;51.46
78483;BME280;67772;50.158;8.658;2023-03-23T14:01:13;99617.13;;;17.44;51.01
78483;BME280;67772;50.158;8.658;2023-03-23T14:03:42;99615.94;;;17.50;50.96
78483;BME280;67772;50.158;8.658;2023-03-23T14:06:17;99614.03;;;17.50;51.09
78483;BME280;67772;50.158;8.658;2023-03-23T14:08:45;99634.28;;;17.26;51.57
78483;BME280;67772;50.158;8.658;2023-03-23T14:11:27;99625.19;;;16.86;52.69
78483;BME280;67772;50.158;8.658;2023-03-23T14:14:00;99611.56;;;16.69;53.46
78483;BME280;67772;50.158;8.658;2023-03-23T14:16:35;99609.59;;;16.34;53.88
78483;BME280;67772;50.158;8.658;2023-03-23T14:19:03;99637.81;;;16.23;54.67
78483;BME280;67772;50.158;8.658;2023-03-23T14:21:40;99636.28;;;16.03;55.28
78483;BME280;67772;50.158;8.658;2023-03-23T14:26:37;99635.88;;;16.10;56.03
78483;BME280;67772;50.158;8.658;2023-03-23T14:29:04;99629.09;;;16.12;55.38
78483;BME280;67772;50.158;8.658;2023-03-23T14:31:31;99636.19;;;16.08;56.20
78483;BME280;67772;50.158;8.658;2023-03-23T14:34:02;99629.50;;;16.06;56.40
78483;BME280;67772;50.158;8.658;2023-03-23T14:36:30;99628.22;;;16.17;55.91
78483;BME280;67772;50.158;8.658;2023-03-23T14:39:04;99627.72;;;16.15;56.35
78483;BME280;67772;50.158;8.658;2023-03-23T14:41:31;99622.34;;;16.15;55.12